createdAt,value
2022-12-12T00:00:46.760Z,14.57
2022-12-12T00:03:13.775Z,14.54
2022-12-12T00:05:41.138Z,14.64
2022-12-12T00:08:08.810Z,14.67
2022-12-12T00:10:36.533Z,14.70
2022-12-12T00:13:03.585Z,14.46
2022-12-12T00:15:30.567Z,14.52
2022-12-12T00:17:57.559Z,14.47
2022-12-12T00:20:24.622Z,14.44
2022-12-12T00:22:51.847Z,14.57
2022-12-12T00:25:19.090Z,14.53
2022-12-12T00:27:46.210Z,14.63
2022-12-12T00:30:13.678Z,14.57
2022-12-12T00:32:41.192Z,14.61
2022-12-12T00:35:08.373Z,14.59
2022-12-12T00:37:35.287Z,14.52
2022-12-12T00:40:02.710Z,14.63
2022-12-12T00:42:29.816Z,14.57
2022-12-12T00:44:56.805Z,14.55
2022-12-12T00:47:23.779Z,14.47
2022-12-12T00:49:50.850Z,14.56
2022-12-12T00:52:17.898Z,14.49
2022-12-12T00:54:45.073Z,14.40
2022-12-12T00:57:12.032Z,14.39
2022-12-12T00:59:39.044Z,14.32
2022-12-12T01:02:06.599Z,14.38
2022-12-12T01:04:33.729Z,14.38
2022-12-12T01:07:00.850Z,14.35
2022-12-12T01:09:27.895Z,14.33
2022-12-12T01:11:54.865Z,14.33
2022-12-12T01:14:21.993Z,14.34
2022-12-12T01:16:49.282Z,14.30
2022-12-12T01:19:18.050Z,14.25
2022-12-12T01:21:47.540Z,14.28
2022-12-12T01:24:20.229Z,14.04
2022-12-12T01:26:50.638Z,14.02
2022-12-12T01:29:19.136Z,13.64
2022-12-12T01:31:46.214Z,13.48
2022-12-12T01:34:16.205Z,13.49
2022-12-12T01:36:43.185Z,13.73
2022-12-12T01:39:10.284Z,13.75
2022-12-12T01:41:37.941Z,13.74
2022-12-12T01:44:08.186Z,13.75
2022-12-12T01:46:40.269Z,13.61
2022-12-12T01:49:27.802Z,13.65
2022-12-12T01:52:00.973Z,13.75
2022-12-12T01:54:30.816Z,13.73
2022-12-12T01:56:59.339Z,13.79
2022-12-12T01:59:30.109Z,13.84
2022-12-12T02:01:57.270Z,13.79
2022-12-12T02:04:25.168Z,13.79
2022-12-12T02:06:55.501Z,13.63
2022-12-12T02:09:25.990Z,13.39
2022-12-12T02:11:55.182Z,13.12
2022-12-12T02:14:25.282Z,12.92
2022-12-12T02:16:55.321Z,12.97
2022-12-12T02:19:34.824Z,12.95
2022-12-12T02:22:10.487Z,13.17
2022-12-12T02:24:43.290Z,13.16
2022-12-12T02:27:16.495Z,13.14
2022-12-12T02:29:54.593Z,13.24
2022-12-12T02:32:21.543Z,13.29
2022-12-12T02:34:50.649Z,13.30
2022-12-12T02:37:18.247Z,13.31
2022-12-12T02:39:45.208Z,13.31
2022-12-12T02:42:18.336Z,13.35
2022-12-12T02:45:07.795Z,13.33
2022-12-12T02:47:39.449Z,13.31
2022-12-12T02:50:09.389Z,13.31
2022-12-12T02:52:36.838Z,13.23
2022-12-12T02:55:04.651Z,13.30
2022-12-12T02:57:31.690Z,13.35
2022-12-12T03:00:01.362Z,13.35
2022-12-12T03:02:40.513Z,13.20
2022-12-12T03:05:36.818Z,13.25
2022-12-12T03:08:11.920Z,13.31
2022-12-12T03:10:48.928Z,13.35
2022-12-12T03:13:30.492Z,13.33
2022-12-12T03:16:03.675Z,13.32
2022-12-12T03:18:37.281Z,13.22
2022-12-12T03:21:04.454Z,13.17
2022-12-12T03:23:34.995Z,13.16
2022-12-12T03:26:02.043Z,13.19
2022-12-12T03:28:35.988Z,13.09
2022-12-12T03:31:05.817Z,13.11
2022-12-12T03:33:44.270Z,13.12
2022-12-12T03:36:34.583Z,13.09
2022-12-12T03:39:14.125Z,13.06
2022-12-12T03:41:49.504Z,13.08
2022-12-12T03:44:19.437Z,13.08
2022-12-12T03:46:52.084Z,13.13
2022-12-12T03:49:29.935Z,12.97
2022-12-12T03:52:03.274Z,12.93
2022-12-12T03:54:36.614Z,12.93
2022-12-12T03:57:09.177Z,12.85
2022-12-12T03:59:58.518Z,12.84
2022-12-12T04:02:31.803Z,12.94
2022-12-12T04:04:58.737Z,12.92
2022-12-12T04:07:30.088Z,12.96
2022-12-12T04:10:15.810Z,12.84
2022-12-12T04:13:06.079Z,12.74
2022-12-12T04:15:39.983Z,12.76
2022-12-12T04:18:13.980Z,12.47
2022-12-12T04:20:59.773Z,12.21
2022-12-12T04:23:33.211Z,12.53
2022-12-12T04:26:25.531Z,12.53
2022-12-12T04:29:10.895Z,12.61
2022-12-12T04:31:40.818Z,12.64
2022-12-12T04:34:15.338Z,12.69
2022-12-12T04:36:44.161Z,12.70
2022-12-12T04:39:13.045Z,12.68
2022-12-12T04:41:40.996Z,12.42
2022-12-12T04:44:10.239Z,12.60
2022-12-12T04:46:39.389Z,12.46
2022-12-12T04:49:16.042Z,12.36
2022-12-12T04:51:45.465Z,12.24
2022-12-12T04:54:22.335Z,12.01
2022-12-12T04:56:52.103Z,11.93
2022-12-12T04:59:19.527Z,11.77
2022-12-12T05:01:52.627Z,11.83
2022-12-12T05:04:43.658Z,11.86
2022-12-12T05:07:14.247Z,11.95
2022-12-12T05:09:41.590Z,11.68
2022-12-12T05:12:09.554Z,11.71
2022-12-12T05:14:36.899Z,11.48
2022-12-12T05:17:07.035Z,11.49
2022-12-12T05:19:34.295Z,11.54
2022-12-12T05:22:01.875Z,11.66
2022-12-12T05:24:31.554Z,11.52
2022-12-12T05:27:00.250Z,11.71
2022-12-12T05:29:27.239Z,11.67
2022-12-12T05:31:54.219Z,11.83
2022-12-12T05:34:21.198Z,11.59
2022-12-12T05:36:48.253Z,11.33
2022-12-12T05:39:15.328Z,11.42
2022-12-12T05:41:42.274Z,11.64
2022-12-12T05:44:09.386Z,11.41
2022-12-12T05:46:36.333Z,11.23
2022-12-12T05:49:03.794Z,11.40
2022-12-12T05:51:30.822Z,11.51
2022-12-12T05:53:57.863Z,11.53
2022-12-12T05:56:24.812Z,11.63
2022-12-12T05:58:51.970Z,11.61
2022-12-12T06:01:19.040Z,11.42
2022-12-12T06:03:46.562Z,11.45
2022-12-12T06:06:13.599Z,11.33
2022-12-12T06:08:40.794Z,11.38
2022-12-12T06:11:08.680Z,11.42
2022-12-12T06:13:37.185Z,11.35
2022-12-12T06:16:08.712Z,11.18
2022-12-12T06:18:36.065Z,11.48
2022-12-12T06:21:06.871Z,11.51
2022-12-12T06:23:36.374Z,11.45
2022-12-12T06:26:04.331Z,11.16
2022-12-12T06:28:31.845Z,11.25
2022-12-12T06:30:58.858Z,11.19
2022-12-12T06:33:26.202Z,11.35
2022-12-12T06:36:00.535Z,11.07
2022-12-12T06:38:27.678Z,11.10
2022-12-12T06:40:54.640Z,11.11
2022-12-12T06:43:24.782Z,11.15
2022-12-12T06:45:54.013Z,11.12
2022-12-12T06:48:24.046Z,11.31
2022-12-12T06:50:54.082Z,11.16
2022-12-12T06:53:21.299Z,11.47
2022-12-12T06:55:48.365Z,11.20
2022-12-12T06:58:15.468Z,11.32
2022-12-12T07:00:42.762Z,11.42
2022-12-12T07:03:17.963Z,11.34
2022-12-12T07:05:48.438Z,11.25
2022-12-12T07:08:16.835Z,11.35
2022-12-12T07:10:51.988Z,11.15
2022-12-12T07:13:31.887Z,11.40
2022-12-12T07:15:59.301Z,11.43
2022-12-12T07:18:30.465Z,11.50
2022-12-12T07:21:17.891Z,11.45
2022-12-12T07:24:04.621Z,11.48
2022-12-12T07:26:33.947Z,11.63
2022-12-12T07:29:05.132Z,11.57
2022-12-12T07:31:35.944Z,11.60
2022-12-12T07:34:09.286Z,11.62
2022-12-12T07:36:39.062Z,11.54
2022-12-12T07:39:06.551Z,11.66
2022-12-12T07:41:35.325Z,11.68
2022-12-12T07:44:03.268Z,11.73
2022-12-12T07:46:31.018Z,11.81
2022-12-12T07:49:02.039Z,11.73
2022-12-12T07:51:31.086Z,11.73
2022-12-12T07:58:17.196Z,11.84
2022-12-12T08:00:52.702Z,12.03
2022-12-12T08:03:21.134Z,12.18
2022-12-12T08:05:50.340Z,12.25
2022-12-12T08:08:18.297Z,12.19
2022-12-12T08:10:46.875Z,12.17
2022-12-12T08:13:18.244Z,12.19
2022-12-12T08:15:48.589Z,12.24
2022-12-12T08:18:26.327Z,11.99
2022-12-12T08:20:53.416Z,12.09
2022-12-12T08:23:20.759Z,12.04
2022-12-12T08:25:57.081Z,12.07
2022-12-12T08:28:40.730Z,12.11
2022-12-12T08:31:21.978Z,11.93
2022-12-12T08:34:01.042Z,12.18
2022-12-12T08:36:43.865Z,12.21
2022-12-12T08:39:28.504Z,12.17
2022-12-12T08:42:07.679Z,12.20
2022-12-12T08:44:43.655Z,12.24
2022-12-12T08:47:19.500Z,12.30
2022-12-12T08:52:37.509Z,12.37
2022-12-12T08:55:19.960Z,12.48
2022-12-12T08:57:47.041Z,12.47
2022-12-12T09:00:20.102Z,12.16
2022-12-12T09:02:47.954Z,12.30
2022-12-12T09:05:20.614Z,12.47
2022-12-12T09:07:48.357Z,12.65
2022-12-12T09:10:15.420Z,12.76
2022-12-12T09:12:42.960Z,13.13
2022-12-12T09:15:11.136Z,13.51
2022-12-12T09:17:39.600Z,13.63
2022-12-12T09:20:15.172Z,14.01
2022-12-12T09:22:44.956Z,14.52
2022-12-12T09:25:13.251Z,14.76
2022-12-12T09:27:45.968Z,15.17
2022-12-12T09:30:14.051Z,15.57
2022-12-12T09:32:42.208Z,15.82
2022-12-12T09:35:10.097Z,16.10
2022-12-12T09:37:37.171Z,16.18
2022-12-12T09:40:04.874Z,16.44
2022-12-12T09:42:33.514Z,16.93
2022-12-12T09:45:02.919Z,17.07
2022-12-12T09:47:33.206Z,16.89
2022-12-12T09:50:04.594Z,16.69
2022-12-12T09:52:36.966Z,15.98
2022-12-12T09:55:26.222Z,16.15
2022-12-12T09:58:00.277Z,16.01
2022-12-12T10:00:34.699Z,16.00
2022-12-12T10:03:13.987Z,15.95
2022-12-12T10:06:13.617Z,15.71
2022-12-12T10:08:54.114Z,15.51
2022-12-12T10:11:51.708Z,15.56
2022-12-12T10:14:36.989Z,15.41
2022-12-12T10:17:09.625Z,15.67
2022-12-12T10:19:48.073Z,15.84
2022-12-12T10:22:29.840Z,15.73
2022-12-12T10:25:04.556Z,15.71
2022-12-12T10:27:32.018Z,15.51
2022-12-12T10:30:22.761Z,15.63
2022-12-12T10:33:10.363Z,15.49
2022-12-12T10:35:52.842Z,15.61
2022-12-12T10:38:38.535Z,15.76
2022-12-12T10:41:32.313Z,15.76
2022-12-12T10:44:13.590Z,15.82
2022-12-12T10:46:44.175Z,15.87
2022-12-12T10:49:16.727Z,15.81
2022-12-12T10:51:50.030Z,15.88
2022-12-12T10:54:24.712Z,15.59
2022-12-12T10:57:20.348Z,15.58
2022-12-12T10:59:58.215Z,15.37
2022-12-12T11:02:47.573Z,15.37
2022-12-12T11:05:32.090Z,15.50
2022-12-12T11:08:18.355Z,15.29
2022-12-12T11:11:05.648Z,15.03
2022-12-12T11:13:38.850Z,15.12
2022-12-12T11:16:14.039Z,15.04
2022-12-12T11:18:41.354Z,15.20
2022-12-12T11:21:14.831Z,15.35
2022-12-12T11:23:55.835Z,15.11
2022-12-12T11:26:23.999Z,15.10
2022-12-12T11:29:03.282Z,15.27
2022-12-12T11:31:33.125Z,15.28
2022-12-12T11:34:08.941Z,15.30
2022-12-12T11:36:44.253Z,15.53
2022-12-12T11:39:29.555Z,15.68
2022-12-12T11:42:05.883Z,15.83
2022-12-12T11:44:49.118Z,15.98
2022-12-12T11:47:30.221Z,16.11
2022-12-12T11:50:11.190Z,16.15
2022-12-12T11:52:38.823Z,16.37
2022-12-12T11:55:18.596Z,16.35
2022-12-12T11:58:05.081Z,16.42
2022-12-12T12:00:46.208Z,16.38
2022-12-12T12:03:32.103Z,16.56
2022-12-12T12:06:05.051Z,16.37
2022-12-12T12:08:35.330Z,16.22
2022-12-12T12:11:10.926Z,16.40
2022-12-12T12:13:59.177Z,16.42
2022-12-12T12:16:47.406Z,16.41
2022-12-12T12:19:18.594Z,16.35
2022-12-12T12:22:10.325Z,16.44
2022-12-12T12:24:49.940Z,16.38
2022-12-12T12:27:24.737Z,16.45
2022-12-12T12:29:59.491Z,16.16
2022-12-12T12:32:34.889Z,16.18
2022-12-12T12:35:07.841Z,16.24
2022-12-12T12:37:54.686Z,16.20
2022-12-12T12:40:45.104Z,16.35
2022-12-12T12:43:18.651Z,16.27
2022-12-12T12:45:52.497Z,16.12
2022-12-12T12:48:23.075Z,16.36
2022-12-12T12:51:03.875Z,16.27
2022-12-12T12:53:58.206Z,16.22
2022-12-12T12:56:33.281Z,16.37
2022-12-12T12:59:04.783Z,16.46
2022-12-12T13:01:38.290Z,16.27
2022-12-12T13:04:14.747Z,16.20
2022-12-12T13:07:17.982Z,16.36
2022-12-12T13:09:51.847Z,16.06
2022-12-12T13:12:37.620Z,16.14
2022-12-12T13:15:15.179Z,16.26
2022-12-12T13:17:54.233Z,16.19
2022-12-12T13:20:26.249Z,15.53
2022-12-12T13:23:16.505Z,15.69
2022-12-12T13:26:01.505Z,15.69
2022-12-12T13:28:31.973Z,15.74
2022-12-12T13:31:13.440Z,15.38
2022-12-12T13:33:46.948Z,15.29
2022-12-12T13:36:34.123Z,15.68
2022-12-12T13:39:15.555Z,15.85
2022-12-12T13:41:54.266Z,15.42
2022-12-12T13:44:38.228Z,15.34
2022-12-12T13:47:22.434Z,15.44
2022-12-12T13:50:00.845Z,15.47
2022-12-12T13:52:31.291Z,15.47
2022-12-12T13:55:22.256Z,15.40
2022-12-12T13:58:02.878Z,15.25
2022-12-12T14:00:40.521Z,15.21
2022-12-12T14:03:12.056Z,15.29
2022-12-12T14:05:43.531Z,15.22
2022-12-12T14:08:28.658Z,15.27
2022-12-12T14:11:04.591Z,15.18
2022-12-12T14:14:02.038Z,15.30
2022-12-12T14:16:45.345Z,15.38
2022-12-12T14:19:25.505Z,15.19
2022-12-12T14:21:58.191Z,15.23
2022-12-12T14:24:37.519Z,15.24
2022-12-12T14:27:20.420Z,15.19
2022-12-12T14:29:53.343Z,15.05
2022-12-12T14:32:43.252Z,15.10
2022-12-12T14:35:26.219Z,14.95
2022-12-12T14:38:03.170Z,15.06
2022-12-12T14:40:37.761Z,15.14
2022-12-12T14:43:25.881Z,15.23
2022-12-12T14:45:54.876Z,15.30
2022-12-12T14:48:31.295Z,15.31
2022-12-12T14:51:13.016Z,15.37
2022-12-12T14:53:59.372Z,15.35
2022-12-12T14:56:39.978Z,15.42
2022-12-12T14:59:24.387Z,15.44
2022-12-12T15:02:03.625Z,15.47
2022-12-12T15:07:37.324Z,15.40
2022-12-12T15:10:22.383Z,15.39
2022-12-12T15:12:51.828Z,15.40
2022-12-12T15:15:38.750Z,15.37
2022-12-12T15:18:06.605Z,15.34
2022-12-12T15:20:33.972Z,15.35
2022-12-12T15:23:01.250Z,15.35
2022-12-12T15:25:32.284Z,15.31
2022-12-12T15:28:00.893Z,15.25
2022-12-12T15:30:42.703Z,15.21
2022-12-12T15:33:20.503Z,15.15
2022-12-12T15:35:57.854Z,14.99
2022-12-12T15:38:25.372Z,15.00
2022-12-12T15:40:57.710Z,15.02
2022-12-12T15:43:26.901Z,14.93
2022-12-12T15:45:58.946Z,14.88
2022-12-12T15:48:40.209Z,14.72
2022-12-12T15:51:08.159Z,14.80
2022-12-12T15:53:44.016Z,14.82
2022-12-12T15:56:16.819Z,14.86
2022-12-12T15:58:46.091Z,14.79
2022-12-12T16:01:20.390Z,14.72
2022-12-12T16:04:05.802Z,14.31
2022-12-12T16:06:36.239Z,14.28
2022-12-12T16:09:32.990Z,14.37
2022-12-12T16:12:02.530Z,14.43
2022-12-12T16:14:41.323Z,14.42
2022-12-12T16:17:10.197Z,14.40
2022-12-12T16:19:47.273Z,14.38
2022-12-12T16:22:20.010Z,14.39
2022-12-12T16:24:52.497Z,14.38
2022-12-12T16:27:26.030Z,14.39
2022-12-12T16:29:59.003Z,14.46
2022-12-12T16:32:26.124Z,14.48
2022-12-12T16:35:00.903Z,14.39
2022-12-12T16:37:31.330Z,14.40
2022-12-12T16:39:58.595Z,14.36
2022-12-12T16:42:28.943Z,14.35
2022-12-12T16:45:02.312Z,14.42
2022-12-12T16:47:36.272Z,14.40
2022-12-12T16:50:06.903Z,14.40
2022-12-12T16:52:40.814Z,14.31
2022-12-12T16:55:27.209Z,14.31
2022-12-12T16:58:04.523Z,14.27
2022-12-12T17:00:41.159Z,14.26
2022-12-12T17:03:08.861Z,14.05
2022-12-12T17:05:42.126Z,14.07
2022-12-12T17:11:26.147Z,14.01
2022-12-12T17:13:55.842Z,13.95
2022-12-12T17:16:29.867Z,13.94
2022-12-12T17:19:06.313Z,13.94
2022-12-12T17:21:48.189Z,14.05
2022-12-12T17:24:55.333Z,14.06
2022-12-12T17:27:31.037Z,14.04
2022-12-12T17:29:58.910Z,13.91
2022-12-12T17:32:34.425Z,14.00
2022-12-12T17:35:11.725Z,13.96
2022-12-12T17:37:40.474Z,13.76
2022-12-12T17:40:12.442Z,13.99
2022-12-12T17:42:40.430Z,13.91
2022-12-12T17:45:10.346Z,13.86
2022-12-12T17:47:38.143Z,13.91
2022-12-12T17:50:05.671Z,13.82
2022-12-12T17:52:36.174Z,13.77
2022-12-12T17:55:53.079Z,13.69
2022-12-12T17:57:54.969Z,13.77
2022-12-12T18:00:22.659Z,13.81
2022-12-12T18:02:51.328Z,13.80
2022-12-12T18:05:22.940Z,13.81
2022-12-12T18:07:50.823Z,13.86
2022-12-12T18:10:24.283Z,13.87
2022-12-12T18:12:52.139Z,13.88
2022-12-12T18:15:19.530Z,13.98
2022-12-12T18:17:50.598Z,14.05
2022-12-12T18:20:18.215Z,13.88
2022-12-12T18:22:48.242Z,13.93
2022-12-12T18:25:18.363Z,13.48
2022-12-12T18:27:45.608Z,13.72
2022-12-12T18:30:12.961Z,13.41
2022-12-12T18:32:43.225Z,13.54
2022-12-12T18:35:13.572Z,13.63
2022-12-12T18:37:45.496Z,13.65
2022-12-12T18:40:14.554Z,13.76
2022-12-12T18:42:41.740Z,13.76
2022-12-12T18:45:12.815Z,13.34
2022-12-12T18:47:41.223Z,13.73
2022-12-12T18:50:10.964Z,13.89
2022-12-12T18:52:43.566Z,13.82
2022-12-12T18:55:15.880Z,13.90
2022-12-12T18:57:43.167Z,13.91
2022-12-12T19:00:13.107Z,14.03
2022-12-12T19:02:43.609Z,14.10
2022-12-12T19:05:13.964Z,14.12
2022-12-12T19:07:44.440Z,14.15
2022-12-12T19:10:14.575Z,14.07
2022-12-12T19:12:44.509Z,14.15
2022-12-12T19:15:17.132Z,14.19
2022-12-12T19:17:47.716Z,14.17
2022-12-12T19:20:15.018Z,14.23
2022-12-12T19:22:46.726Z,14.24
2022-12-12T19:25:18.993Z,14.14
2022-12-12T19:27:46.141Z,14.27
2022-12-12T19:30:25.871Z,14.30
2022-12-12T19:32:54.752Z,14.35
2022-12-12T19:35:28.586Z,14.17
2022-12-12T19:38:01.386Z,14.28
2022-12-12T19:40:28.600Z,14.35
2022-12-12T19:42:56.181Z,14.38
2022-12-12T19:45:24.488Z,14.40
2022-12-12T19:47:51.732Z,14.44
2022-12-12T19:50:20.157Z,14.46
2022-12-12T19:52:49.782Z,14.47
2022-12-12T19:55:19.801Z,14.50
2022-12-12T19:57:50.140Z,14.55
2022-12-12T20:00:21.237Z,14.59
2022-12-12T20:02:51.091Z,14.63
2022-12-12T20:05:19.446Z,14.64
2022-12-12T20:07:48.869Z,14.69
2022-12-12T20:10:17.593Z,14.74
2022-12-12T20:12:56.105Z,14.70
2022-12-12T20:15:26.121Z,14.74
2022-12-12T20:17:53.948Z,14.77
2022-12-12T20:20:23.283Z,14.79
2022-12-12T20:22:52.122Z,14.79
2022-12-12T20:25:21.293Z,14.79
2022-12-12T20:27:48.634Z,14.81
2022-12-12T20:30:21.374Z,14.76
2022-12-12T20:32:52.190Z,14.84
2022-12-12T20:35:23.251Z,14.81
2022-12-12T20:37:52.082Z,14.85
2022-12-12T20:40:24.557Z,14.86
2022-12-12T20:43:00.037Z,14.85
2022-12-12T20:45:36.812Z,14.85
2022-12-12T20:48:07.733Z,14.87
2022-12-12T20:50:42.078Z,14.90
2022-12-12T20:53:12.692Z,14.92
2022-12-12T20:55:46.636Z,14.88
2022-12-12T20:58:21.946Z,14.83
2022-12-12T21:00:57.977Z,14.86
2022-12-12T21:03:35.792Z,14.81
2022-12-12T21:09:05.405Z,14.85
2022-12-12T21:11:36.700Z,14.84
2022-12-12T21:14:04.823Z,14.83
2022-12-12T21:16:34.412Z,14.86
2022-12-12T21:19:09.045Z,14.84
2022-12-12T21:21:42.960Z,14.86
2022-12-12T21:24:18.875Z,14.85
2022-12-12T21:26:56.798Z,14.82
2022-12-12T21:29:47.956Z,14.80
2022-12-12T21:32:31.669Z,14.75
2022-12-12T21:35:06.854Z,14.74
2022-12-12T21:37:47.533Z,14.62
2022-12-12T21:40:24.735Z,14.53
2022-12-12T21:43:02.236Z,14.68
2022-12-12T21:45:33.052Z,14.64
2022-12-12T21:48:00.551Z,14.62
2022-12-12T21:50:30.823Z,14.67
2022-12-12T21:53:19.119Z,14.71
2022-12-12T21:55:49.747Z,14.77
2022-12-12T21:58:17.298Z,14.77
2022-12-12T22:00:45.000Z,14.80
2022-12-12T22:03:16.505Z,14.72
2022-12-12T22:05:46.694Z,14.69
2022-12-12T22:08:17.099Z,14.65
2022-12-12T22:10:45.789Z,14.65
2022-12-12T22:13:22.054Z,14.65
2022-12-12T22:16:04.296Z,14.62
2022-12-12T22:18:39.923Z,14.60
2022-12-12T22:21:11.043Z,14.59
2022-12-12T22:23:44.258Z,14.55
2022-12-12T22:26:18.226Z,14.60
2022-12-12T22:28:52.500Z,14.60
2022-12-12T22:31:25.748Z,14.60
2022-12-12T22:34:03.649Z,14.60
2022-12-12T22:36:33.573Z,14.60
2022-12-12T22:39:01.849Z,14.58
2022-12-12T22:41:35.628Z,14.62
2022-12-12T22:44:13.496Z,14.61
2022-12-12T22:46:55.197Z,14.63
2022-12-12T22:49:27.462Z,14.61
2022-12-12T22:51:56.816Z,14.59
2022-12-12T22:54:27.780Z,14.64
2022-12-12T22:57:00.403Z,14.66
2022-12-12T22:59:30.807Z,14.64
2022-12-12T23:02:01.577Z,14.64
2022-12-12T23:04:34.397Z,14.60
2022-12-12T23:07:01.688Z,14.52
2022-12-12T23:09:33.609Z,14.57
2022-12-12T23:12:08.054Z,14.63
2022-12-12T23:14:43.649Z,14.60
2022-12-12T23:17:11.045Z,14.31
2022-12-12T23:19:38.245Z,14.29
2022-12-12T23:22:08.682Z,14.40
2022-12-12T23:24:43.375Z,14.46
2022-12-12T23:27:13.330Z,14.48
2022-12-12T23:29:43.644Z,14.57
2022-12-12T23:32:16.796Z,14.61
2022-12-12T23:34:46.453Z,14.62
2022-12-12T23:37:18.775Z,14.41
2022-12-12T23:39:45.950Z,14.53
2022-12-12T23:42:16.132Z,14.56
2022-12-12T23:44:43.420Z,14.62
2022-12-12T23:47:13.210Z,14.65
2022-12-12T23:49:44.148Z,14.63
2022-12-12T23:52:13.864Z,14.64
2022-12-12T23:54:43.985Z,14.56
2022-12-12T23:57:12.473Z,14.58
2022-12-12T23:59:40.850Z,14.59
